sensor_id;sensor_type;location;lat;lon;timestamp;temperature;humidity
44121;DHT22;29783;52.504;13.478;2022-07-23T00:01:39;18.90;74.40
44121;DHT22;29783;52.504;13.478;2022-07-23T00:04:06;18.80;74.80
44121;DHT22;29783;52.504;13.478;2022-07-23T00:06:32;18.80;74.70
44121;DHT22;29783;52.504;13.478;2022-07-23T00:08:57;18.80;74.70
44121;DHT22;29783;52.504;13.478;2022-07-23T00:11:23;18.70;75.00
44121;DHT22;29783;52.504;13.478;2022-07-23T00:13:49;18.70;74.70
44121;DHT22;29783;52.504;13.478;2022-07-23T00:16:15;18.70;74.60
44121;DHT22;29783;52.504;13.478;2022-07-23T00:18:41;18.60;74.80
44121;DHT22;29783;52.504;13.478;2022-07-23T00:21:07;18.60;74.90
44121;DHT22;29783;52.504;13.478;2022-07-23T00:23:32;18.60;75.00
44121;DHT22;29783;52.504;13.478;2022-07-23T00:25:58;18.60;74.70
44121;DHT22;29783;52.504;13.478;2022-07-23T00:28:26;18.60;74.70
44121;DHT22;29783;52.504;13.478;2022-07-23T00:30:54;18.70;74.30
44121;DHT22;29783;52.504;13.478;2022-07-23T00:33:21;18.70;74.10
44121;DHT22;29783;52.504;13.478;2022-07-23T00:35:47;18.70;73.70
44121;DHT22;29783;52.504;13.478;2022-07-23T00:43:50;18.60;73.80
44121;DHT22;29783;52.504;13.478;2022-07-23T00:46:20;18.50;74.00
44121;DHT22;29783;52.504;13.478;2022-07-23T00:48:46;18.50;73.70
44121;DHT22;29783;52.504;13.478;2022-07-23T00:51:11;18.60;73.40
44121;DHT22;29783;52.504;13.478;2022-07-23T00:53:37;18.60;73.40
44121;DHT22;29783;52.504;13.478;2022-07-23T00:56:03;18.50;73.30
44121;DHT22;29783;52.504;13.478;2022-07-23T00:58:28;18.60;73.20
44121;DHT22;29783;52.504;13.478;2022-07-23T01:00:54;18.60;73.20
44121;DHT22;29783;52.504;13.478;2022-07-23T01:03:20;18.50;73.30
44121;DHT22;29783;52.504;13.478;2022-07-23T01:05:45;18.50;73.70
44121;DHT22;29783;52.504;13.478;2022-07-23T01:08:11;18.50;73.60
44121;DHT22;29783;52.504;13.478;2022-07-23T01:10:37;18.40;73.80
44121;DHT22;29783;52.504;13.478;2022-07-23T01:13:08;18.40;73.90
44121;DHT22;29783;52.504;13.478;2022-07-23T01:15:36;18.40;73.90
44121;DHT22;29783;52.504;13.478;2022-07-23T01:18:06;18.50;73.80
44121;DHT22;29783;52.504;13.478;2022-07-23T01:20:32;18.40;73.90
44121;DHT22;29783;52.504;13.478;2022-07-23T01:22:57;18.40;74.00
44121;DHT22;29783;52.504;13.478;2022-07-23T01:25:24;18.30;74.20
44121;DHT22;29783;52.504;13.478;2022-07-23T01:27:52;18.30;74.40
44121;DHT22;29783;52.504;13.478;2022-07-23T01:30:17;18.20;74.80
44121;DHT22;29783;52.504;13.478;2022-07-23T01:32:43;18.10;75.10
44121;DHT22;29783;52.504;13.478;2022-07-23T01:35:10;18.00;75.50
44121;DHT22;29783;52.504;13.478;2022-07-23T01:40:12;17.80;76.30
44121;DHT22;29783;52.504;13.478;2022-07-23T01:42:38;17.70;76.70
44121;DHT22;29783;52.504;13.478;2022-07-23T01:45:04;17.70;77.10
44121;DHT22;29783;52.504;13.478;2022-07-23T01:47:30;17.70;77.30
44121;DHT22;29783;52.504;13.478;2022-07-23T01:49:55;17.60;77.80
44121;DHT22;29783;52.504;13.478;2022-07-23T01:52:21;17.70;77.40
44121;DHT22;29783;52.504;13.478;2022-07-23T01:54:47;17.70;77.30
44121;DHT22;29783;52.504;13.478;2022-07-23T01:57:12;17.70;77.30
44121;DHT22;29783;52.504;13.478;2022-07-23T01:59:38;17.70;77.30
44121;DHT22;29783;52.504;13.478;2022-07-23T02:02:04;17.70;77.30
44121;DHT22;29783;52.504;13.478;2022-07-23T02:04:31;17.70;77.30
44121;DHT22;29783;52.504;13.478;2022-07-23T02:06:57;17.70;77.40
44121;DHT22;29783;52.504;13.478;2022-07-23T02:09:23;17.70;77.30
44121;DHT22;29783;52.504;13.478;2022-07-23T02:11:49;17.80;76.80
44121;DHT22;29783;52.504;13.478;2022-07-23T02:14:15;17.80;76.70
44121;DHT22;29783;52.504;13.478;2022-07-23T02:16:40;17.80;76.60
44121;DHT22;29783;52.504;13.478;2022-07-23T02:19:06;17.80;76.70
44121;DHT22;29783;52.504;13.478;2022-07-23T02:21:31;17.80;76.40
44121;DHT22;29783;52.504;13.478;2022-07-23T02:23:57;17.70;76.50
44121;DHT22;29783;52.504;13.478;2022-07-23T02:26:22;17.70;76.50
44121;DHT22;29783;52.504;13.478;2022-07-23T02:28:48;17.70;76.30
44121;DHT22;29783;52.504;13.478;2022-07-23T02:31:15;17.70;76.40
44121;DHT22;29783;52.504;13.478;2022-07-23T02:33:43;17.70;76.60
44121;DHT22;29783;52.504;13.478;2022-07-23T02:41:19;17.60;76.70
44121;DHT22;29783;52.504;13.478;2022-07-23T02:43:45;17.50;77.00
44121;DHT22;29783;52.504;13.478;2022-07-23T02:46:11;17.50;77.10
44121;DHT22;29783;52.504;13.478;2022-07-23T02:48:38;17.50;77.30
44121;DHT22;29783;52.504;13.478;2022-07-23T02:51:03;17.40;77.40
44121;DHT22;29783;52.504;13.478;2022-07-23T02:53:29;17.40;77.60
44121;DHT22;29783;52.504;13.478;2022-07-23T02:55:54;17.30;77.80
44121;DHT22;29783;52.504;13.478;2022-07-23T02:58:20;17.30;78.00
44121;DHT22;29783;52.504;13.478;2022-07-23T03:00:46;17.20;78.20
44121;DHT22;29783;52.504;13.478;2022-07-23T03:03:12;17.20;78.50
44121;DHT22;29783;52.504;13.478;2022-07-23T03:05:37;17.20;78.70
44121;DHT22;29783;52.504;13.478;2022-07-23T03:08:03;17.10;78.90
44121;DHT22;29783;52.504;13.478;2022-07-23T03:10:29;17.10;79.00
44121;DHT22;29783;52.504;13.478;2022-07-23T03:12:54;17.10;79.00
44121;DHT22;29783;52.504;13.478;2022-07-23T03:15:20;17.10;79.20
44121;DHT22;29783;52.504;13.478;2022-07-23T03:17:46;17.10;79.30
44121;DHT22;29783;52.504;13.478;2022-07-23T03:20:11;17.00;79.50
44121;DHT22;29783;52.504;13.478;2022-07-23T03:22:37;17.00;79.80
44121;DHT22;29783;52.504;13.478;2022-07-23T03:25:03;16.90;79.90
44121;DHT22;29783;52.504;13.478;2022-07-23T03:27:29;16.90;80.00
44121;DHT22;29783;52.504;13.478;2022-07-23T03:29:58;16.90;80.10
44121;DHT22;29783;52.504;13.478;2022-07-23T03:32:25;16.80;80.40
44121;DHT22;29783;52.504;13.478;2022-07-23T03:34:51;16.80;80.60
44121;DHT22;29783;52.504;13.478;2022-07-23T03:37:17;16.80;80.80
44121;DHT22;29783;52.504;13.478;2022-07-23T03:39:44;16.70;81.00
44121;DHT22;29783;52.504;13.478;2022-07-23T03:42:10;16.70;81.00
44121;DHT22;29783;52.504;13.478;2022-07-23T03:44:36;16.70;80.80
44121;DHT22;29783;52.504;13.478;2022-07-23T03:47:06;16.70;80.60
44121;DHT22;29783;52.504;13.478;2022-07-23T03:49:31;16.70;80.50
44121;DHT22;29783;52.504;13.478;2022-07-23T03:51:58;16.70;80.50
44121;DHT22;29783;52.504;13.478;2022-07-23T03:54:24;16.70;80.50
44121;DHT22;29783;52.504;13.478;2022-07-23T03:56:49;16.60;80.40
44121;DHT22;29783;52.504;13.478;2022-07-23T03:59:15;16.50;80.50
44121;DHT22;29783;52.504;13.478;2022-07-23T04:01:40;16.50;80.40
44121;DHT22;29783;52.504;13.478;2022-07-23T04:04:06;16.60;79.90
44121;DHT22;29783;52.504;13.478;2022-07-23T04:06:34;16.60;79.10
44121;DHT22;29783;52.504;13.478;2022-07-23T04:09:00;16.50;79.20
44121;DHT22;29783;52.504;13.478;2022-07-23T04:11:25;16.50;79.20
44121;DHT22;29783;52.504;13.478;2022-07-23T04:13:51;16.50;78.90
44121;DHT22;29783;52.504;13.478;2022-07-23T04:16:17;16.60;78.60
44121;DHT22;29783;52.504;13.478;2022-07-23T04:18:42;16.60;78.30
44121;DHT22;29783;52.504;13.478;2022-07-23T04:21:08;16.60;78.30
44121;DHT22;29783;52.504;13.478;2022-07-23T04:23:33;16.60;77.80
44121;DHT22;29783;52.504;13.478;2022-07-23T04:25:59;16.60;77.60
44121;DHT22;29783;52.504;13.478;2022-07-23T04:28:25;16.60;77.60
44121;DHT22;29783;52.504;13.478;2022-07-23T04:30:50;16.70;77.30
44121;DHT22;29783;52.504;13.478;2022-07-23T04:33:16;16.70;76.90
44121;DHT22;29783;52.504;13.478;2022-07-23T04:35:41;16.70;76.40
44121;DHT22;29783;52.504;13.478;2022-07-23T04:40:42;16.70;75.90
44121;DHT22;29783;52.504;13.478;2022-07-23T04:43:08;16.70;75.30
44121;DHT22;29783;52.504;13.478;2022-07-23T04:45:34;16.70;75.40
44121;DHT22;29783;52.504;13.478;2022-07-23T04:47:59;16.70;76.00
44121;DHT22;29783;52.504;13.478;2022-07-23T04:50:25;16.70;76.80
44121;DHT22;29783;52.504;13.478;2022-07-23T04:52:50;16.70;77.10
44121;DHT22;29783;52.504;13.478;2022-07-23T04:55:16;16.70;78.00
44121;DHT22;29783;52.504;13.478;2022-07-23T04:57:42;16.50;80.70
44121;DHT22;29783;52.504;13.478;2022-07-23T05:00:09;16.40;80.00
44121;DHT22;29783;52.504;13.478;2022-07-23T05:02:34;16.30;80.60
44121;DHT22;29783;52.504;13.478;2022-07-23T05:05:00;16.20;81.00
44121;DHT22;29783;52.504;13.478;2022-07-23T05:07:26;16.10;82.10
44121;DHT22;29783;52.504;13.478;2022-07-23T05:09:51;16.10;81.80
44121;DHT22;29783;52.504;13.478;2022-07-23T05:12:17;16.00;82.90
44121;DHT22;29783;52.504;13.478;2022-07-23T05:14:42;15.90;83.20
44121;DHT22;29783;52.504;13.478;2022-07-23T05:17:08;15.90;83.40
44121;DHT22;29783;52.504;13.478;2022-07-23T05:19:34;15.80;83.80
44121;DHT22;29783;52.504;13.478;2022-07-23T05:22:00;15.90;83.50
44121;DHT22;29783;52.504;13.478;2022-07-23T05:24:26;15.80;83.00
44121;DHT22;29783;52.504;13.478;2022-07-23T05:26:51;15.90;83.40
44121;DHT22;29783;52.504;13.478;2022-07-23T05:29:17;15.90;83.50
44121;DHT22;29783;52.504;13.478;2022-07-23T05:31:43;15.80;83.80
44121;DHT22;29783;52.504;13.478;2022-07-23T05:34:09;15.70;84.70
44121;DHT22;29783;52.504;13.478;2022-07-23T05:50:33;15.90;88.10
44121;DHT22;29783;52.504;13.478;2022-07-23T05:52:59;15.90;87.10
44121;DHT22;29783;52.504;13.478;2022-07-23T05:55:24;16.00;87.40
44121;DHT22;29783;52.504;13.478;2022-07-23T05:57:50;16.00;86.10
44121;DHT22;29783;52.504;13.478;2022-07-23T06:00:15;16.10;86.60
44121;DHT22;29783;52.504;13.478;2022-07-23T06:02:41;16.00;86.00
44121;DHT22;29783;52.504;13.478;2022-07-23T06:05:07;15.90;85.60
44121;DHT22;29783;52.504;13.478;2022-07-23T06:07:33;16.00;86.90
44121;DHT22;29783;52.504;13.478;2022-07-23T06:09:59;16.00;86.70
44121;DHT22;29783;52.504;13.478;2022-07-23T06:12:24;16.00;85.60
44121;DHT22;29783;52.504;13.478;2022-07-23T06:14:51;16.00;85.60
44121;DHT22;29783;52.504;13.478;2022-07-23T06:17:17;15.90;86.70
44121;DHT22;29783;52.504;13.478;2022-07-23T06:19:43;15.90;85.60
44121;DHT22;29783;52.504;13.478;2022-07-23T06:22:09;15.90;85.50
44121;DHT22;29783;52.504;13.478;2022-07-23T06:24:34;15.90;86.70
44121;DHT22;29783;52.504;13.478;2022-07-23T06:27:00;15.90;87.00
44121;DHT22;29783;52.504;13.478;2022-07-23T06:29:25;15.90;85.30
44121;DHT22;29783;52.504;13.478;2022-07-23T06:31:51;15.80;85.70
44121;DHT22;29783;52.504;13.478;2022-07-23T06:34:16;15.80;86.30
44121;DHT22;29783;52.504;13.478;2022-07-23T06:36:42;15.90;86.60
44121;DHT22;29783;52.504;13.478;2022-07-23T06:39:07;15.80;87.10
44121;DHT22;29783;52.504;13.478;2022-07-23T06:41:33;15.80;88.10
44121;DHT22;29783;52.504;13.478;2022-07-23T06:44:00;15.90;87.40
44121;DHT22;29783;52.504;13.478;2022-07-23T06:46:25;15.90;86.60
44121;DHT22;29783;52.504;13.478;2022-07-23T06:48:51;16.00;87.80
44121;DHT22;29783;52.504;13.478;2022-07-23T06:51:16;16.00;87.70
44121;DHT22;29783;52.504;13.478;2022-07-23T06:53:42;16.10;88.40
44121;DHT22;29783;52.504;13.478;2022-07-23T06:56:08;16.20;88.20
44121;DHT22;29783;52.504;13.478;2022-07-23T06:58:33;16.30;88.30
44121;DHT22;29783;52.504;13.478;2022-07-23T07:00:59;16.30;87.80
44121;DHT22;29783;52.504;13.478;2022-07-23T07:03:24;16.30;87.50
44121;DHT22;29783;52.504;13.478;2022-07-23T07:05:50;16.50;87.80
44121;DHT22;29783;52.504;13.478;2022-07-23T07:08:15;16.50;88.30
44121;DHT22;29783;52.504;13.478;2022-07-23T07:10:41;16.50;88.10
44121;DHT22;29783;52.504;13.478;2022-07-23T07:13:07;16.60;87.60
44121;DHT22;29783;52.504;13.478;2022-07-23T07:15:32;16.60;87.60
44121;DHT22;29783;52.504;13.478;2022-07-23T07:17:58;16.70;87.20
44121;DHT22;29783;52.504;13.478;2022-07-23T07:20:23;16.60;87.80
44121;DHT22;29783;52.504;13.478;2022-07-23T07:22:49;16.60;87.60
44121;DHT22;29783;52.504;13.478;2022-07-23T07:25:15;16.60;87.70
44121;DHT22;29783;52.504;13.478;2022-07-23T07:27:40;16.70;86.70
44121;DHT22;29783;52.504;13.478;2022-07-23T07:30:07;16.70;86.80
44121;DHT22;29783;52.504;13.478;2022-07-23T07:32:33;17.00;85.60
44121;DHT22;29783;52.504;13.478;2022-07-23T07:34:58;16.90;84.90
44121;DHT22;29783;52.504;13.478;2022-07-23T07:39:59;17.00;83.20
44121;DHT22;29783;52.504;13.478;2022-07-23T07:42:26;17.10;83.70
44121;DHT22;29783;52.504;13.478;2022-07-23T07:44:51;17.20;83.90
44121;DHT22;29783;52.504;13.478;2022-07-23T07:47:17;17.30;83.80
44121;DHT22;29783;52.504;13.478;2022-07-23T07:49:43;17.40;84.70
44121;DHT22;29783;52.504;13.478;2022-07-23T07:52:09;17.60;82.60
44121;DHT22;29783;52.504;13.478;2022-07-23T07:54:34;17.80;83.00
44121;DHT22;29783;52.504;13.478;2022-07-23T07:57:00;17.90;81.60
44121;DHT22;29783;52.504;13.478;2022-07-23T07:59:26;18.10;81.80
44121;DHT22;29783;52.504;13.478;2022-07-23T08:01:51;18.20;80.80
44121;DHT22;29783;52.504;13.478;2022-07-23T08:04:18;18.10;80.80
44121;DHT22;29783;52.504;13.478;2022-07-23T08:06:44;18.10;80.30
44121;DHT22;29783;52.504;13.478;2022-07-23T08:09:09;18.20;80.90
44121;DHT22;29783;52.504;13.478;2022-07-23T08:11:35;18.30;80.80
44121;DHT22;29783;52.504;13.478;2022-07-23T08:14:01;18.10;81.40
44121;DHT22;29783;52.504;13.478;2022-07-23T08:16:26;18.20;82.30
44121;DHT22;29783;52.504;13.478;2022-07-23T08:18:53;18.20;81.10
44121;DHT22;29783;52.504;13.478;2022-07-23T08:21:20;18.30;81.20
44121;DHT22;29783;52.504;13.478;2022-07-23T08:23:46;18.80;78.80
44121;DHT22;29783;52.504;13.478;2022-07-23T08:26:11;19.20;77.60
44121;DHT22;29783;52.504;13.478;2022-07-23T08:28:37;19.20;76.10
44121;DHT22;29783;52.504;13.478;2022-07-23T08:31:03;19.20;76.90
44121;DHT22;29783;52.504;13.478;2022-07-23T08:33:30;19.40;77.10
44121;DHT22;29783;52.504;13.478;2022-07-23T08:35:56;19.40;76.10
44121;DHT22;29783;52.504;13.478;2022-07-23T08:41:12;19.20;75.40
44121;DHT22;29783;52.504;13.478;2022-07-23T08:43:38;19.10;75.60
44121;DHT22;29783;52.504;13.478;2022-07-23T08:46:05;19.20;75.40
44121;DHT22;29783;52.504;13.478;2022-07-23T08:48:36;19.30;74.90
44121;DHT22;29783;52.504;13.478;2022-07-23T08:51:04;19.30;74.90
44121;DHT22;29783;52.504;13.478;2022-07-23T08:53:31;19.50;74.80
44121;DHT22;29783;52.504;13.478;2022-07-23T08:55:59;19.60;74.10
44121;DHT22;29783;52.504;13.478;2022-07-23T08:58:27;19.70;72.20
44121;DHT22;29783;52.504;13.478;2022-07-23T09:00:52;19.60;72.20
44121;DHT22;29783;52.504;13.478;2022-07-23T09:03:24;19.70;72.60
44121;DHT22;29783;52.504;13.478;2022-07-23T09:05:50;19.70;72.40
44121;DHT22;29783;52.504;13.478;2022-07-23T09:08:19;20.00;71.30
44121;DHT22;29783;52.504;13.478;2022-07-23T09:10:58;20.10;70.50
44121;DHT22;29783;52.504;13.478;2022-07-23T09:15:51;20.40;69.60
44121;DHT22;29783;52.504;13.478;2022-07-23T09:18:17;20.20;70.40
44121;DHT22;29783;52.504;13.478;2022-07-23T09:20:46;20.30;69.70
44121;DHT22;29783;52.504;13.478;2022-07-23T09:23:11;20.40;68.70
44121;DHT22;29783;52.504;13.478;2022-07-23T09:25:37;20.70;67.70
44121;DHT22;29783;52.504;13.478;2022-07-23T09:28:04;20.80;67.60
44121;DHT22;29783;52.504;13.478;2022-07-23T09:30:32;21.30;65.50
44121;DHT22;29783;52.504;13.478;2022-07-23T09:33:13;21.20;63.70
44121;DHT22;29783;52.504;13.478;2022-07-23T09:35:49;20.90;65.10
44121;DHT22;29783;52.504;13.478;2022-07-23T09:49:38;21.10;63.60
44121;DHT22;29783;52.504;13.478;2022-07-23T09:52:08;20.80;65.60
44121;DHT22;29783;52.504;13.478;2022-07-23T09:57:12;21.10;64.70
44121;DHT22;29783;52.504;13.478;2022-07-23T09:59:43;20.80;64.00
44121;DHT22;29783;52.504;13.478;2022-07-23T10:02:11;20.80;64.70
44121;DHT22;29783;52.504;13.478;2022-07-23T10:04:41;21.40;63.20
44121;DHT22;29783;52.504;13.478;2022-07-23T10:07:08;21.70;62.70
44121;DHT22;29783;52.504;13.478;2022-07-23T10:09:42;22.70;60.40
44121;DHT22;29783;52.504;13.478;2022-07-23T10:12:13;23.10;57.60
44121;DHT22;29783;52.504;13.478;2022-07-23T10:14:58;22.90;58.80
44121;DHT22;29783;52.504;13.478;2022-07-23T10:17:25;23.10;57.70
44121;DHT22;29783;52.504;13.478;2022-07-23T10:19:50;23.10;58.30
44121;DHT22;29783;52.504;13.478;2022-07-23T10:22:27;23.00;58.10
44121;DHT22;29783;52.504;13.478;2022-07-23T10:25:23;23.10;57.70
44121;DHT22;29783;52.504;13.478;2022-07-23T10:33:55;23.20;55.70
44121;DHT22;29783;52.504;13.478;2022-07-23T10:36:28;23.30;53.90
44121;DHT22;29783;52.504;13.478;2022-07-23T10:39:04;22.90;54.60
44121;DHT22;29783;52.504;13.478;2022-07-23T10:44:11;23.00;53.90
44121;DHT22;29783;52.504;13.478;2022-07-23T10:46:59;22.90;54.30
44121;DHT22;29783;52.504;13.478;2022-07-23T10:49:44;23.00;54.90
44121;DHT22;29783;52.504;13.478;2022-07-23T10:54:50;22.70;55.50
44121;DHT22;29783;52.504;13.478;2022-07-23T10:57:21;22.70;56.00
44121;DHT22;29783;52.504;13.478;2022-07-23T11:02:30;22.30;57.60
44121;DHT22;29783;52.504;13.478;2022-07-23T11:05:01;22.70;56.80
44121;DHT22;29783;52.504;13.478;2022-07-23T11:07:26;22.40;57.40
44121;DHT22;29783;52.504;13.478;2022-07-23T11:09:52;22.50;56.70
44121;DHT22;29783;52.504;13.478;2022-07-23T11:15:04;22.80;57.30
44121;DHT22;29783;52.504;13.478;2022-07-23T11:17:31;23.20;54.90
44121;DHT22;29783;52.504;13.478;2022-07-23T11:25:04;23.70;53.70
44121;DHT22;29783;52.504;13.478;2022-07-23T11:27:44;24.00;53.40
44121;DHT22;29783;52.504;13.478;2022-07-23T11:30:36;23.90;53.30
44121;DHT22;29783;52.504;13.478;2022-07-23T11:35:39;24.60;52.30
44121;DHT22;29783;52.504;13.478;2022-07-23T11:40:45;25.00;50.00
44121;DHT22;29783;52.504;13.478;2022-07-23T11:43:12;25.00;49.40
44121;DHT22;29783;52.504;13.478;2022-07-23T11:45:39;24.90;50.00
44121;DHT22;29783;52.504;13.478;2022-07-23T11:48:07;24.50;50.30
44121;DHT22;29783;52.504;13.478;2022-07-23T11:50:33;24.40;51.50
44121;DHT22;29783;52.504;13.478;2022-07-23T11:53:00;24.60;49.80
44121;DHT22;29783;52.504;13.478;2022-07-23T11:55:25;24.30;50.60
44121;DHT22;29783;52.504;13.478;2022-07-23T11:57:52;24.20;51.00
44121;DHT22;29783;52.504;13.478;2022-07-23T12:00:27;24.30;50.70
44121;DHT22;29783;52.504;13.478;2022-07-23T12:03:01;24.40;50.20
44121;DHT22;29783;52.504;13.478;2022-07-23T12:05:33;24.50;50.80
44121;DHT22;29783;52.504;13.478;2022-07-23T12:08:00;24.50;50.60
44121;DHT22;29783;52.504;13.478;2022-07-23T12:13:04;24.20;51.40
44121;DHT22;29783;52.504;13.478;2022-07-23T12:15:33;24.20;51.10
44121;DHT22;29783;52.504;13.478;2022-07-23T12:18:00;24.40;51.40
44121;DHT22;29783;52.504;13.478;2022-07-23T12:20:38;24.30;51.30
44121;DHT22;29783;52.504;13.478;2022-07-23T12:23:05;24.10;51.50
44121;DHT22;29783;52.504;13.478;2022-07-23T12:25:37;23.80;52.30
44121;DHT22;29783;52.504;13.478;2022-07-23T12:28:10;24.50;51.00
44121;DHT22;29783;52.504;13.478;2022-07-23T12:30:46;24.70;50.50
44121;DHT22;29783;52.504;13.478;2022-07-23T12:33:14;25.70;48.10
44121;DHT22;29783;52.504;13.478;2022-07-23T12:35:43;26.50;46.70
44121;DHT22;29783;52.504;13.478;2022-07-23T12:38:12;27.20;45.40
44121;DHT22;29783;52.504;13.478;2022-07-23T12:43:20;27.20;44.50
44121;DHT22;29783;52.504;13.478;2022-07-23T12:45:54;28.20;42.70
44121;DHT22;29783;52.504;13.478;2022-07-23T12:48:21;28.10;42.10
44121;DHT22;29783;52.504;13.478;2022-07-23T12:53:40;26.50;45.50
44121;DHT22;29783;52.504;13.478;2022-07-23T12:56:27;26.00;46.80
44121;DHT22;29783;52.504;13.478;2022-07-23T12:59:05;25.70;47.60
44121;DHT22;29783;52.504;13.478;2022-07-23T13:01:40;25.70;47.20
44121;DHT22;29783;52.504;13.478;2022-07-23T13:04:21;25.60;47.40
44121;DHT22;29783;52.504;13.478;2022-07-23T13:06:49;25.40;47.70
44121;DHT22;29783;52.504;13.478;2022-07-23T13:09:17;25.60;47.20
44121;DHT22;29783;52.504;13.478;2022-07-23T13:11:44;25.80;46.60
44121;DHT22;29783;52.504;13.478;2022-07-23T13:14:11;25.70;46.50
44121;DHT22;29783;52.504;13.478;2022-07-23T13:16:38;25.30;47.60
44121;DHT22;29783;52.504;13.478;2022-07-23T13:19:04;26.10;46.20
44121;DHT22;29783;52.504;13.478;2022-07-23T13:21:30;26.50;44.80
44121;DHT22;29783;52.504;13.478;2022-07-23T13:23:56;25.90;45.60
44121;DHT22;29783;52.504;13.478;2022-07-23T13:26:22;25.60;46.70
44121;DHT22;29783;52.504;13.478;2022-07-23T13:28:48;25.70;47.00
44121;DHT22;29783;52.504;13.478;2022-07-23T13:31:13;25.80;46.20
44121;DHT22;29783;52.504;13.478;2022-07-23T13:33:39;26.40;45.30
44121;DHT22;29783;52.504;13.478;2022-07-23T13:36:05;26.90;43.90
44121;DHT22;29783;52.504;13.478;2022-07-23T13:38:31;26.50;44.90
44121;DHT22;29783;52.504;13.478;2022-07-23T13:40:56;25.70;47.20
44121;DHT22;29783;52.504;13.478;2022-07-23T13:43:24;25.90;46.50
44121;DHT22;29783;52.504;13.478;2022-07-23T13:45:51;26.00;45.80
44121;DHT22;29783;52.504;13.478;2022-07-23T13:48:17;25.90;45.90
44121;DHT22;29783;52.504;13.478;2022-07-23T13:50:44;26.10;45.60
44121;DHT22;29783;52.504;13.478;2022-07-23T13:53:13;26.70;44.30
44121;DHT22;29783;52.504;13.478;2022-07-23T13:55:40;28.20;41.90
44121;DHT22;29783;52.504;13.478;2022-07-23T13:58:07;28.80;39.90
44121;DHT22;29783;52.504;13.478;2022-07-23T14:00:35;28.70;39.80
44121;DHT22;29783;52.504;13.478;2022-07-23T14:03:02;28.20;40.60
44121;DHT22;29783;52.504;13.478;2022-07-23T14:05:28;27.30;42.60
44121;DHT22;29783;52.504;13.478;2022-07-23T14:07:54;26.80;43.60
44121;DHT22;29783;52.504;13.478;2022-07-23T14:10:21;26.60;43.90
44121;DHT22;29783;52.504;13.478;2022-07-23T14:12:49;26.20;44.20
44121;DHT22;29783;52.504;13.478;2022-07-23T14:15:16;26.20;45.00
44121;DHT22;29783;52.504;13.478;2022-07-23T14:17:44;26.00;44.80
44121;DHT22;29783;52.504;13.478;2022-07-23T14:20:12;25.70;46.10
44121;DHT22;29783;52.504;13.478;2022-07-23T14:22:38;25.80;46.10
44121;DHT22;29783;52.504;13.478;2022-07-23T14:25:05;26.10;45.30
44121;DHT22;29783;52.504;13.478;2022-07-23T14:27:31;27.10;43.70
44121;DHT22;29783;52.504;13.478;2022-07-23T14:29:57;29.00;40.20
44121;DHT22;29783;52.504;13.478;2022-07-23T14:32:23;31.20;35.80
44121;DHT22;29783;52.504;13.478;2022-07-23T14:34:49;31.60;34.80
44121;DHT22;29783;52.504;13.478;2022-07-23T14:37:15;31.20;35.70
44121;DHT22;29783;52.504;13.478;2022-07-23T14:39:42;31.60;34.80
44121;DHT22;29783;52.504;13.478;2022-07-23T14:42:09;32.50;33.90
44121;DHT22;29783;52.504;13.478;2022-07-23T14:44:35;34.90;29.90
44121;DHT22;29783;52.504;13.478;2022-07-23T14:47:02;33.70;30.90
44121;DHT22;29783;52.504;13.478;2022-07-23T14:49:30;32.80;31.70
44121;DHT22;29783;52.504;13.478;2022-07-23T14:51:56;31.00;34.20
44121;DHT22;29783;52.504;13.478;2022-07-23T14:54:22;29.70;36.30
44121;DHT22;29783;52.504;13.478;2022-07-23T14:56:47;28.70;38.00
44121;DHT22;29783;52.504;13.478;2022-07-23T14:59:13;28.40;38.70
44121;DHT22;29783;52.504;13.478;2022-07-23T15:01:39;28.30;39.00
44121;DHT22;29783;52.504;13.478;2022-07-23T15:04:06;28.90;37.90
44121;DHT22;29783;52.504;13.478;2022-07-23T15:06:33;28.70;38.00
44121;DHT22;29783;52.504;13.478;2022-07-23T15:08:59;28.50;38.70
44121;DHT22;29783;52.504;13.478;2022-07-23T15:11:26;27.70;39.60
44121;DHT22;29783;52.504;13.478;2022-07-23T15:13:52;26.40;42.00
44121;DHT22;29783;52.504;13.478;2022-07-23T15:16:18;25.90;43.10
44121;DHT22;29783;52.504;13.478;2022-07-23T15:18:43;26.00;43.10
44121;DHT22;29783;52.504;13.478;2022-07-23T15:21:09;26.90;41.70
44121;DHT22;29783;52.504;13.478;2022-07-23T15:23:36;28.60;38.40
44121;DHT22;29783;52.504;13.478;2022-07-23T15:26:05;30.60;34.70
44121;DHT22;29783;52.504;13.478;2022-07-23T15:28:31;32.30;32.30
44121;DHT22;29783;52.504;13.478;2022-07-23T15:30:56;32.10;32.50
44121;DHT22;29783;52.504;13.478;2022-07-23T15:33:22;32.20;31.80
44121;DHT22;29783;52.504;13.478;2022-07-23T15:35:47;31.20;33.00
44121;DHT22;29783;52.504;13.478;2022-07-23T15:38:13;32.10;32.30
44121;DHT22;29783;52.504;13.478;2022-07-23T15:40:38;33.40;29.80
44121;DHT22;29783;52.504;13.478;2022-07-23T15:43:04;33.40;29.90
44121;DHT22;29783;52.504;13.478;2022-07-23T15:45:32;33.10;30.30
44121;DHT22;29783;52.504;13.478;2022-07-23T15:47:58;33.70;29.60
44121;DHT22;29783;52.504;13.478;2022-07-23T15:50:24;33.90;29.40
44121;DHT22;29783;52.504;13.478;2022-07-23T15:52:50;33.20;30.00
44121;DHT22;29783;52.504;13.478;2022-07-23T15:55:15;32.10;31.00
44121;DHT22;29783;52.504;13.478;2022-07-23T15:57:41;31.00;32.90
44121;DHT22;29783;52.504;13.478;2022-07-23T16:00:07;32.20;31.40
44121;DHT22;29783;52.504;13.478;2022-07-23T16:02:34;33.90;29.00
44121;DHT22;29783;52.504;13.478;2022-07-23T16:05:00;35.00;27.80
44121;DHT22;29783;52.504;13.478;2022-07-23T16:07:26;33.30;29.20
44121;DHT22;29783;52.504;13.478;2022-07-23T16:09:52;31.50;31.50
44121;DHT22;29783;52.504;13.478;2022-07-23T16:12:17;30.30;33.00
44121;DHT22;29783;52.504;13.478;2022-07-23T16:14:43;29.20;34.70
44121;DHT22;29783;52.504;13.478;2022-07-23T16:17:08;28.60;35.80
44121;DHT22;29783;52.504;13.478;2022-07-23T16:19:34;29.10;35.20
44121;DHT22;29783;52.504;13.478;2022-07-23T16:22:00;29.20;34.40
44121;DHT22;29783;52.504;13.478;2022-07-23T16:24:25;28.00;36.80
44121;DHT22;29783;52.504;13.478;2022-07-23T16:26:51;27.30;37.50
44121;DHT22;29783;52.504;13.478;2022-07-23T16:29:16;27.00;38.20
44121;DHT22;29783;52.504;13.478;2022-07-23T16:31:42;27.00;38.00
44121;DHT22;29783;52.504;13.478;2022-07-23T16:34:08;28.20;36.40
44121;DHT22;29783;52.504;13.478;2022-07-23T16:36:33;28.70;34.80
44121;DHT22;29783;52.504;13.478;2022-07-23T16:39:00;28.40;35.80
44121;DHT22;29783;52.504;13.478;2022-07-23T16:41:25;30.10;33.70